createdAt,value
2022-11-12T00:01:22.867Z,102796.41
2022-11-12T00:03:51.986Z,102796.16
2022-11-12T00:06:20.225Z,102801.72
2022-11-12T00:08:48.504Z,102794.16
2022-11-12T00:11:17.648Z,102805.69
2022-11-12T00:13:46.015Z,102811.44
2022-11-12T00:16:15.600Z,102807.78
2022-11-12T00:18:44.058Z,102802.31
2022-11-12T00:21:12.287Z,102798.38
2022-11-12T00:23:40.544Z,102802.38
2022-11-12T00:26:08.796Z,102803.72
2022-11-12T00:28:38.461Z,102795.69
2022-11-12T00:31:12.096Z,102794.44
2022-11-12T00:33:44.968Z,102795.28
2022-11-12T00:36:13.672Z,102800.47
2022-11-12T00:38:42.019Z,102810.69
2022-11-12T00:41:10.313Z,102808.53
2022-11-12T00:43:38.543Z,102810.91
2022-11-12T00:46:06.878Z,102812.88
2022-11-12T00:48:35.265Z,102813.84
2022-11-12T00:51:07.262Z,102810.44
2022-11-12T00:53:35.726Z,102809.31
2022-11-12T00:56:06.744Z,102814.66
2022-11-12T00:58:37.219Z,102815.00
2022-11-12T01:01:10.546Z,102816.94
2022-11-12T01:03:40.127Z,102815.97
2022-11-12T01:06:13.056Z,102809.00
2022-11-12T01:08:42.103Z,102815.22
2022-11-12T01:11:13.461Z,102820.94
2022-11-12T01:13:45.312Z,102819.13
2022-11-12T01:16:17.181Z,102818.59
2022-11-12T01:18:45.712Z,102824.59
2022-11-12T01:21:16.151Z,102826.22
2022-11-12T01:23:44.460Z,102818.97
2022-11-12T01:26:15.560Z,102813.69
2022-11-12T01:28:44.750Z,102815.41
2022-11-12T01:31:16.010Z,102820.69
2022-11-12T01:33:46.575Z,102822.69
2022-11-12T01:36:18.452Z,102820.16
2022-11-12T01:38:48.413Z,102818.38
2022-11-12T01:41:21.000Z,102816.84
2022-11-12T01:43:49.692Z,102813.63
2022-11-12T01:46:23.094Z,102819.44
2022-11-12T01:48:57.468Z,102811.44
2022-11-12T01:51:33.580Z,102801.41
2022-11-12T01:54:08.067Z,102802.84
2022-11-12T01:56:42.238Z,102804.28
2022-11-12T01:59:18.102Z,102810.38
2022-11-12T02:01:46.407Z,102807.59
2022-11-12T02:04:15.238Z,102799.31
2022-11-12T02:06:46.605Z,102796.38
2022-11-12T02:09:15.671Z,102793.31
2022-11-12T02:11:44.080Z,102795.47
2022-11-12T02:14:12.699Z,102799.91
2022-11-12T02:16:44.897Z,102797.59
2022-11-12T02:19:16.539Z,102795.72
2022-11-12T02:21:46.453Z,102791.97
2022-11-12T02:24:37.975Z,102786.16
2022-11-12T02:27:08.387Z,102782.75
2022-11-12T02:29:36.708Z,102781.88
2022-11-12T02:32:05.241Z,102795.13
2022-11-12T02:34:33.520Z,102788.91
2022-11-12T02:37:03.105Z,102794.47
2022-11-12T02:39:31.382Z,102797.81
2022-11-12T02:41:59.825Z,102797.50
2022-11-12T02:44:28.505Z,102797.34
2022-11-12T02:46:56.738Z,102805.53
2022-11-12T02:49:24.984Z,102796.88
2022-11-12T02:51:53.252Z,102800.41
2022-11-12T02:54:22.875Z,102790.28
2022-11-12T02:56:51.087Z,102796.50
2022-11-12T02:59:19.336Z,102791.72
2022-11-12T03:01:47.533Z,102793.44
2022-11-12T03:04:15.773Z,102796.97
2022-11-12T03:06:44.074Z,102799.03
2022-11-12T03:09:13.143Z,102796.41
2022-11-12T03:11:42.838Z,102802.69
2022-11-12T03:14:11.083Z,102798.97
2022-11-12T03:16:39.308Z,102798.00
2022-11-12T03:19:08.132Z,102790.66
2022-11-12T03:21:36.362Z,102788.47
2022-11-12T03:24:04.802Z,102794.88
2022-11-12T03:26:35.744Z,102792.31
2022-11-12T03:29:05.979Z,102795.13
2022-11-12T03:31:35.297Z,102787.81
2022-11-12T03:34:03.626Z,102787.72
2022-11-12T03:36:32.440Z,102793.81
2022-11-12T03:39:00.740Z,102786.78
2022-11-12T03:41:29.036Z,102780.19
2022-11-12T03:43:57.353Z,102786.38
2022-11-12T03:46:26.950Z,102787.88
2022-11-12T03:48:55.223Z,102776.47
2022-11-12T03:51:23.628Z,102775.50
2022-11-12T03:53:51.939Z,102775.50
2022-11-12T03:56:20.192Z,102774.75
2022-11-12T03:58:48.441Z,102770.56
2022-11-12T04:01:16.703Z,102773.88
2022-11-12T04:03:46.343Z,102774.09
2022-11-12T04:06:31.963Z,102772.25
2022-11-12T04:13:23.054Z,102769.88
2022-11-12T04:16:11.569Z,102762.34
2022-11-12T04:18:57.787Z,102759.84
2022-11-12T04:21:50.835Z,102758.94
2022-11-12T04:24:39.088Z,102750.91
2022-11-12T04:27:09.083Z,102749.84
2022-11-12T04:29:55.760Z,102748.72
2022-11-12T04:32:25.528Z,102743.84
2022-11-12T04:34:54.637Z,102738.56
2022-11-12T04:37:25.876Z,102738.41
2022-11-12T04:39:55.025Z,102749.16
2022-11-12T04:42:40.912Z,102748.69
2022-11-12T04:45:11.093Z,102743.53
2022-11-12T04:47:43.905Z,102748.22
2022-11-12T04:50:17.274Z,102747.28
2022-11-12T04:52:46.969Z,102752.41
2022-11-12T04:55:15.366Z,102750.22
2022-11-12T04:57:43.684Z,102743.53
2022-11-12T05:00:14.206Z,102742.41
2022-11-12T05:02:42.533Z,102742.22
2022-11-12T05:05:10.977Z,102730.59
2022-11-12T05:07:39.340Z,102739.84
2022-11-12T05:10:10.564Z,102734.75
2022-11-12T05:12:39.127Z,102731.25
2022-11-12T05:15:09.206Z,102724.47
2022-11-12T05:17:37.543Z,102721.03
2022-11-12T05:20:08.376Z,102723.31
2022-11-12T05:22:45.609Z,102719.91
2022-11-12T05:25:17.916Z,102726.69
2022-11-12T05:27:46.247Z,102716.09
2022-11-12T05:30:15.583Z,102713.63
2022-11-12T05:32:43.949Z,102716.09
2022-11-12T05:35:12.309Z,102707.31
2022-11-12T05:37:40.639Z,102704.81
2022-11-12T05:40:10.712Z,102705.69
2022-11-12T05:42:40.416Z,102705.22
2022-11-12T05:45:10.574Z,102707.13
2022-11-12T05:47:38.879Z,102708.09
2022-11-12T05:50:08.883Z,102698.84
2022-11-12T05:52:37.652Z,102696.56
2022-11-12T05:55:07.078Z,102695.63
2022-11-12T05:57:35.393Z,102690.00
2022-11-12T06:00:06.656Z,102687.13
2022-11-12T06:02:35.041Z,102695.41
2022-11-12T06:05:03.495Z,102703.13
2022-11-12T06:07:31.843Z,102713.81
2022-11-12T06:10:00.224Z,102714.84
2022-11-12T06:12:29.229Z,102711.41
2022-11-12T06:14:57.552Z,102720.38
2022-11-12T06:17:27.249Z,102722.94
2022-11-12T06:19:55.634Z,102725.63
2022-11-12T06:22:23.980Z,102732.09
2022-11-12T06:24:52.360Z,102730.94
2022-11-12T06:27:20.657Z,102732.00
2022-11-12T06:29:49.016Z,102735.16
2022-11-12T06:32:17.364Z,102730.94
2022-11-12T06:34:47.130Z,102739.31
2022-11-12T06:37:15.988Z,102742.94
2022-11-12T06:39:44.345Z,102737.63
2022-11-12T06:42:12.699Z,102744.94
2022-11-12T06:44:41.037Z,102746.22
2022-11-12T06:47:09.795Z,102749.81
2022-11-12T06:49:38.311Z,102747.97
2022-11-12T06:52:11.132Z,102743.72
2022-11-12T06:54:43.866Z,102745.81
2022-11-12T06:57:12.217Z,102749.72
2022-11-12T06:59:40.557Z,102752.00
2022-11-12T07:02:09.072Z,102756.38
2022-11-12T07:04:37.469Z,102758.81
2022-11-12T07:07:10.553Z,102755.13
2022-11-12T07:09:39.507Z,102769.50
2022-11-12T07:12:08.540Z,102774.66
2022-11-12T07:14:36.961Z,102766.63
2022-11-12T07:17:05.311Z,102777.19
2022-11-12T07:19:33.655Z,102769.56
2022-11-12T07:22:02.011Z,102764.91
2022-11-12T07:24:31.712Z,102768.03
2022-11-12T07:27:00.055Z,102765.06
2022-11-12T07:29:46.328Z,102765.91
2022-11-12T07:32:15.675Z,102764.09
2022-11-12T07:34:44.036Z,102766.94
2022-11-12T07:37:12.414Z,102767.25
2022-11-12T07:39:42.225Z,102772.75
2022-11-12T07:42:10.548Z,102775.25
2022-11-12T07:44:38.956Z,102776.72
2022-11-12T07:47:07.335Z,102776.88
2022-11-12T07:49:35.729Z,102769.91
2022-11-12T07:52:04.233Z,102770.09
2022-11-12T07:54:32.585Z,102771.84
2022-11-12T07:57:02.339Z,102773.41
2022-11-12T07:59:30.714Z,102776.28
2022-11-12T08:01:59.114Z,102768.63
2022-11-12T08:04:27.563Z,102767.50
2022-11-12T08:06:55.964Z,102759.50
2022-11-12T08:09:24.367Z,102768.34
2022-11-12T08:11:52.656Z,102766.38
2022-11-12T08:14:23.002Z,102763.09
2022-11-12T08:16:51.604Z,102767.88
2022-11-12T08:19:20.018Z,102770.75
2022-11-12T08:21:48.343Z,102770.19
2022-11-12T08:24:16.720Z,102767.28
2022-11-12T08:26:45.075Z,102774.66
2022-11-12T08:29:13.485Z,102778.09
2022-11-12T08:31:43.173Z,102770.66
2022-11-12T08:34:18.529Z,102772.03
2022-11-12T08:36:50.278Z,102766.03
2022-11-12T08:39:18.634Z,102767.25
2022-11-12T08:41:46.970Z,102770.63
2022-11-12T08:44:15.914Z,102783.19
2022-11-12T08:46:45.679Z,102781.19
2022-11-12T08:49:14.029Z,102782.13
2022-11-12T08:51:42.336Z,102788.69
2022-11-12T08:54:10.763Z,102788.16
2022-11-12T08:56:39.778Z,102784.13
2022-11-12T08:59:08.089Z,102786.06
2022-11-12T09:01:36.471Z,102781.53
2022-11-12T09:04:06.501Z,102785.81
2022-11-12T09:06:34.916Z,102788.91
2022-11-12T09:09:03.276Z,102789.75
2022-11-12T09:11:31.715Z,102790.84
2022-11-12T09:14:00.161Z,102786.41
2022-11-12T09:16:28.587Z,102791.00
2022-11-12T09:18:56.905Z,102789.69
2022-11-12T09:21:26.607Z,102789.00
2022-11-12T09:23:55.663Z,102790.84
2022-11-12T09:26:24.067Z,102780.72
2022-11-12T09:28:54.969Z,102786.16
2022-11-12T09:31:25.699Z,102790.81
2022-11-12T09:33:54.040Z,102793.16
2022-11-12T09:36:22.347Z,102799.50
2022-11-12T09:38:52.035Z,102794.22
2022-11-12T09:41:29.472Z,102789.28
2022-11-12T09:44:02.602Z,102790.38
2022-11-12T09:46:40.141Z,102792.81
2022-11-12T09:49:17.396Z,102784.09
2022-11-12T09:51:53.006Z,102781.53
2022-11-12T09:54:25.871Z,102786.56
2022-11-12T09:56:55.864Z,102796.56
2022-11-12T09:59:29.768Z,102797.31
2022-11-12T10:02:15.803Z,102788.59
2022-11-12T10:05:01.684Z,102789.25
2022-11-12T10:07:47.695Z,102794.09
2022-11-12T10:10:25.279Z,102787.00
2022-11-12T10:13:25.926Z,102782.34
2022-11-12T10:16:34.141Z,102783.78
2022-11-12T10:19:24.816Z,102781.25
2022-11-12T10:22:05.855Z,102774.84
2022-11-12T10:24:38.019Z,102773.75
2022-11-12T10:27:19.237Z,102766.66
2022-11-12T10:29:54.744Z,102764.03
2022-11-12T10:32:23.129Z,102760.47
2022-11-12T10:34:51.510Z,102763.13
2022-11-12T10:37:26.608Z,102759.59
2022-11-12T10:39:55.177Z,102763.63
2022-11-12T10:42:25.102Z,102752.59
2022-11-12T10:44:53.467Z,102750.56
2022-11-12T10:47:29.112Z,102747.84
2022-11-12T10:50:21.064Z,102740.16
2022-11-12T10:53:02.061Z,102732.09
2022-11-12T10:55:33.091Z,102728.47
2022-11-12T10:58:21.011Z,102731.97
2022-11-12T11:01:01.993Z,102731.13
2022-11-12T11:03:34.844Z,102734.13
2022-11-12T11:06:06.343Z,102733.22
2022-11-12T11:08:42.443Z,102724.91
2022-11-12T11:11:25.741Z,102729.44
2022-11-12T11:13:57.999Z,102723.44
2022-11-12T11:16:28.628Z,102731.47
2022-11-12T11:18:59.585Z,102729.97
2022-11-12T11:22:20.551Z,102719.72
2022-11-12T11:25:05.882Z,102721.06
2022-11-12T11:27:40.664Z,102716.81
2022-11-12T11:30:15.493Z,102711.31
2022-11-12T11:33:04.539Z,102708.94
2022-11-12T11:35:49.253Z,102707.25
2022-11-12T11:38:39.086Z,102701.97
2022-11-12T11:41:32.708Z,102702.03
2022-11-12T11:44:14.492Z,102697.78
2022-11-12T11:47:02.177Z,102692.50
2022-11-12T11:50:05.777Z,102696.56
2022-11-12T11:52:47.210Z,102693.16
2022-11-12T11:55:43.379Z,102689.38
2022-11-12T11:58:33.068Z,102701.31
2022-11-12T12:01:13.683Z,102687.91
2022-11-12T12:04:01.494Z,102693.03
2022-11-12T12:06:33.431Z,102688.31
2022-11-12T12:09:19.385Z,102687.22
2022-11-12T12:11:56.033Z,102686.00
2022-11-12T12:14:48.179Z,102683.59
2022-11-12T12:17:34.821Z,102681.94
2022-11-12T12:20:21.247Z,102680.19
2022-11-12T12:22:54.999Z,102677.88
2022-11-12T12:25:29.427Z,102676.81
2022-11-12T12:28:05.407Z,102674.25
2022-11-12T12:30:41.505Z,102672.13
2022-11-12T12:33:24.459Z,102671.50
2022-11-12T12:35:59.444Z,102675.13
2022-11-12T12:38:36.109Z,102672.34
2022-11-12T12:41:13.310Z,102669.84
2022-11-12T12:43:47.950Z,102661.94
2022-11-12T12:46:21.645Z,102654.44
2022-11-12T12:48:52.256Z,102657.69
2022-11-12T12:51:23.078Z,102658.06
2022-11-12T12:53:51.547Z,102661.28
2022-11-12T12:56:49.098Z,102650.59
2022-11-12T12:59:25.299Z,102650.16
2022-11-12T13:02:01.211Z,102648.88
2022-11-12T13:04:53.550Z,102646.97
2022-11-12T13:07:43.903Z,102651.09
2022-11-12T13:10:49.681Z,102650.19
2022-11-12T13:13:33.602Z,102655.13
2022-11-12T13:16:03.367Z,102656.63
2022-11-12T13:19:11.252Z,102659.66
2022-11-12T13:21:40.025Z,102666.00
2022-11-12T13:24:12.070Z,102653.19
2022-11-12T13:26:56.992Z,102653.63
2022-11-12T13:29:45.343Z,102657.69
2022-11-12T13:32:38.738Z,102646.38
2022-11-12T13:35:39.667Z,102650.22
2022-11-12T13:38:15.981Z,102651.09
2022-11-12T13:40:51.704Z,102646.81
2022-11-12T13:43:34.662Z,102645.75
2022-11-12T13:46:32.645Z,102654.28
2022-11-12T13:49:05.735Z,102643.84
2022-11-12T13:51:43.537Z,102642.53
2022-11-12T13:54:34.360Z,102645.53
2022-11-12T13:57:28.332Z,102646.00
2022-11-12T14:00:35.386Z,102647.06
2022-11-12T14:03:07.278Z,102642.34
2022-11-12T14:05:38.102Z,102641.06
2022-11-12T14:08:33.449Z,102625.03
2022-11-12T14:11:30.314Z,102616.47
2022-11-12T14:14:09.948Z,102619.25
2022-11-12T14:16:53.787Z,102620.09
2022-11-12T14:20:04.470Z,102619.88
2022-11-12T14:22:41.450Z,102627.97
2022-11-12T14:25:19.761Z,102627.13
2022-11-12T14:27:49.070Z,102623.72
2022-11-12T14:30:22.802Z,102611.53
2022-11-12T14:32:54.365Z,102619.03
2022-11-12T14:35:33.869Z,102608.34
2022-11-12T14:38:13.751Z,102611.34
2022-11-12T14:40:47.719Z,102606.19
2022-11-12T14:43:28.420Z,102604.06
2022-11-12T14:46:01.041Z,102603.22
2022-11-12T14:48:30.162Z,102599.59
2022-11-12T14:51:05.283Z,102598.75
2022-11-12T14:53:38.798Z,102594.06
2022-11-12T14:56:14.050Z,102585.91
2022-11-12T14:58:42.967Z,102587.22
2022-11-12T15:04:25.044Z,102594.47
2022-11-12T15:06:55.501Z,102586.16
2022-11-12T15:09:36.957Z,102589.53
2022-11-12T15:12:08.763Z,102588.69
2022-11-12T15:14:39.403Z,102592.53
2022-11-12T15:17:28.575Z,102590.41
2022-11-12T15:20:03.918Z,102586.56
2022-11-12T15:22:33.569Z,102595.53
2022-11-12T15:25:13.958Z,102588.50
2022-11-12T15:27:44.321Z,102580.16
2022-11-12T15:30:24.707Z,102590.84
2022-11-12T15:33:10.382Z,102572.03
2022-11-12T15:35:43.902Z,102573.75
2022-11-12T15:38:18.948Z,102572.25
2022-11-12T15:40:50.917Z,102560.50
2022-11-12T15:43:25.911Z,102562.00
2022-11-12T15:45:56.195Z,102559.22
2022-11-12T15:48:26.036Z,102552.59
2022-11-12T15:50:55.222Z,102550.03
2022-11-12T15:53:23.634Z,102550.03
2022-11-12T15:55:53.576Z,102548.97
2022-11-12T15:58:31.725Z,102552.81
2022-11-12T16:01:00.270Z,102549.59
2022-11-12T16:03:31.390Z,102553.00
2022-11-12T16:06:05.508Z,102552.16
2022-11-12T16:08:36.887Z,102543.19
2022-11-12T16:11:25.455Z,102548.94
2022-11-12T16:13:53.910Z,102560.69
2022-11-12T16:16:22.294Z,102554.50
2022-11-12T16:18:52.482Z,102552.78
2022-11-12T16:21:21.893Z,102548.94
2022-11-12T16:23:50.273Z,102545.97
2022-11-12T16:26:29.048Z,102548.75
2022-11-12T16:28:57.836Z,102551.72
2022-11-12T16:31:26.194Z,102547.44
2022-11-12T16:33:55.920Z,102547.03
2022-11-12T16:36:24.266Z,102548.53
2022-11-12T16:38:52.632Z,102545.75
2022-11-12T16:41:20.991Z,102552.56
2022-11-12T16:43:49.333Z,102546.41
2022-11-12T16:46:26.146Z,102542.53
2022-11-12T16:48:56.134Z,102538.69
2022-11-12T16:51:25.186Z,102535.28
2022-11-12T16:53:53.685Z,102542.53
2022-11-12T16:56:23.882Z,102535.47
2022-11-12T16:58:52.235Z,102540.00
2022-11-12T17:01:28.649Z,102535.72
2022-11-12T17:03:59.856Z,102541.47
2022-11-12T17:06:36.576Z,102535.72
2022-11-12T17:09:06.273Z,102533.56
2022-11-12T17:11:36.027Z,102533.59
2022-11-12T17:14:05.663Z,102528.47
2022-11-12T17:16:34.026Z,102525.69
2022-11-12T17:19:04.171Z,102527.13
2022-11-12T17:21:32.555Z,102516.94
2022-11-12T17:24:00.955Z,102522.25
2022-11-12T17:26:29.406Z,102525.69
2022-11-12T17:29:03.670Z,102525.91
2022-11-12T17:31:37.047Z,102529.94
2022-11-12T17:34:07.709Z,102522.50
2022-11-12T17:36:40.591Z,102516.47
2022-11-12T17:39:13.595Z,102517.56
2022-11-12T17:41:41.932Z,102513.06
2022-11-12T17:44:16.067Z,102517.97
2022-11-12T17:46:44.547Z,102512.44
2022-11-12T17:49:15.128Z,102516.69
2022-11-12T17:51:43.735Z,102518.22
2022-11-12T17:54:12.171Z,102516.94
2022-11-12T17:56:40.484Z,102513.94
2022-11-12T17:59:08.857Z,102509.03
2022-11-12T18:01:37.686Z,102507.28
2022-11-12T18:04:06.419Z,102500.47
2022-11-12T18:06:36.586Z,102504.94
2022-11-12T18:09:07.853Z,102497.50
2022-11-12T18:11:45.115Z,102496.63
2022-11-12T18:14:14.278Z,102497.50
2022-11-12T18:16:43.351Z,102504.75
2022-11-12T18:19:12.593Z,102503.91
2022-11-12T18:21:43.122Z,102491.06
2022-11-12T18:24:16.494Z,102500.69
2022-11-12T18:26:45.288Z,102500.25
2022-11-12T18:29:13.796Z,102501.53
2022-11-12T18:31:42.110Z,102505.81
2022-11-12T18:34:14.954Z,102500.69
2022-11-12T18:36:44.672Z,102501.53
2022-11-12T18:39:13.101Z,102495.34
2022-11-12T18:41:41.405Z,102500.69
2022-11-12T18:44:10.847Z,102499.38
2022-11-12T18:46:39.365Z,102494.50
2022-11-12T18:49:07.992Z,102498.13
2022-11-12T18:51:36.319Z,102491.72
2022-11-12T18:54:06.500Z,102487.03
2022-11-12T18:56:34.806Z,102491.06
2022-11-12T18:59:03.136Z,102482.53
2022-11-12T19:01:31.648Z,102484.25
2022-11-12T19:04:00.182Z,102485.94
2022-11-12T19:06:28.491Z,102487.44
2022-11-12T19:09:01.980Z,102482.75
2022-11-12T19:11:31.658Z,102485.09
2022-11-12T19:14:00.001Z,102478.50
2022-11-12T19:16:28.323Z,102481.69
2022-11-12T19:18:56.682Z,102484.69
2022-11-12T19:21:27.058Z,102491.06
2022-11-12T19:23:57.270Z,102485.75
2022-11-12T19:26:25.814Z,102481.06
2022-11-12T19:28:56.214Z,102483.63
2022-11-12T19:31:28.187Z,102484.22
2022-11-12T19:33:57.026Z,102483.16
2022-11-12T19:36:26.807Z,102478.28
2022-11-12T19:38:56.831Z,102477.19
2022-11-12T19:41:25.922Z,102480.38
2022-11-12T19:43:55.955Z,102474.41
2022-11-12T19:46:25.283Z,102473.56
2022-11-12T19:48:53.736Z,102469.72
2022-11-12T19:51:22.063Z,102481.25
2022-11-12T19:53:51.023Z,102479.31
2022-11-12T19:56:21.584Z,102474.41
2022-11-12T19:58:53.637Z,102476.56
2022-11-12T20:01:23.586Z,102479.94
2022-11-12T20:03:52.037Z,102468.63
2022-11-12T20:06:23.324Z,102471.63
2022-11-12T20:08:51.704Z,102460.34
2022-11-12T20:11:20.160Z,102463.75
2022-11-12T20:13:48.711Z,102460.75
2022-11-12T20:16:24.893Z,102462.25
2022-11-12T20:18:56.395Z,102461.59
2022-11-12T20:21:25.267Z,102461.81
2022-11-12T20:23:53.598Z,102458.84
2022-11-12T20:26:21.892Z,102456.03
2022-11-12T20:28:50.241Z,102449.44
2022-11-12T20:31:21.042Z,102445.19
2022-11-12T20:33:52.616Z,102447.53
2022-11-12T20:36:24.060Z,102441.56
2022-11-12T20:38:53.522Z,102435.38
2022-11-12T20:41:24.353Z,102444.78
2022-11-12T20:43:54.339Z,102446.66
2022-11-12T20:46:22.947Z,102444.34
2022-11-12T20:48:51.305Z,102436.47
2022-11-12T20:51:24.699Z,102451.81
2022-11-12T20:53:59.377Z,102436.22
2022-11-12T20:56:31.518Z,102436.47
2022-11-12T20:59:00.500Z,102443.91
2022-11-12T21:01:31.137Z,102436.47
2022-11-12T21:03:59.561Z,102437.72
2022-11-12T21:06:30.523Z,102434.53
2022-11-12T21:09:00.787Z,102434.94
2022-11-12T21:11:29.264Z,102435.81
2022-11-12T21:13:59.507Z,102437.72
2022-11-12T21:16:27.842Z,102436.47
2022-11-12T21:18:56.190Z,102433.69
2022-11-12T21:21:24.495Z,102435.56
2022-11-12T21:23:54.970Z,102431.94
2022-11-12T21:26:24.446Z,102434.53
2022-11-12T21:28:54.949Z,102425.78
2022-11-12T21:31:25.930Z,102430.88
2022-11-12T21:33:56.203Z,102427.03
2022-11-12T21:36:25.193Z,102432.16
2022-11-12T21:38:54.926Z,102422.78
2022-11-12T21:41:26.442Z,102417.47
2022-11-12T21:43:55.096Z,102418.06
2022-11-12T21:46:25.861Z,102417.22
2022-11-12T21:48:55.615Z,102417.03
2022-11-12T21:51:26.196Z,102423.19
2022-11-12T21:53:57.956Z,102419.97
2022-11-12T21:56:27.105Z,102416.78
2022-11-12T21:58:59.452Z,102419.78
2022-11-12T22:01:30.544Z,102414.00
2022-11-12T22:03:59.986Z,102405.69
2022-11-12T22:06:30.728Z,102407.84
2022-11-12T22:09:00.429Z,102401.66
2022-11-12T22:11:28.969Z,102406.34
2022-11-12T22:13:57.297Z,102400.81
2022-11-12T22:16:29.276Z,102405.28
2022-11-12T22:18:59.865Z,102403.53
2022-11-12T22:21:34.123Z,102401.16
2022-11-12T22:24:07.948Z,102398.59
2022-11-12T22:26:36.362Z,102393.03
2022-11-12T22:29:05.847Z,102395.22
2022-11-12T22:31:34.935Z,102393.09
2022-11-12T22:34:04.101Z,102391.34
2022-11-12T22:36:36.013Z,102395.81
2022-11-12T22:39:07.400Z,102390.50
2022-11-12T22:41:35.783Z,102387.06
2022-11-12T22:44:04.895Z,102392.00
2022-11-12T22:46:35.693Z,102386.63
2022-11-12T22:49:05.410Z,102388.16
2022-11-12T22:51:35.570Z,102384.97
2022-11-12T22:54:09.421Z,102386.44
2022-11-12T22:56:39.791Z,102380.25
2022-11-12T22:59:08.154Z,102378.56
2022-11-12T23:01:37.306Z,102383.69
2022-11-12T23:04:07.830Z,102378.13
2022-11-12T23:06:36.784Z,102374.28
2022-11-12T23:09:07.357Z,102376.84
2022-11-12T23:11:38.348Z,102380.47
2022-11-12T23:14:06.717Z,102372.59
2022-11-12T23:16:35.910Z,102377.66
2022-11-12T23:19:04.305Z,102371.06
2022-11-12T23:21:32.878Z,102366.78
2022-11-12T23:24:01.507Z,102373.88
2022-11-12T23:26:32.291Z,102367.25
2022-11-12T23:29:01.525Z,102363.00
2022-11-12T23:31:32.192Z,102364.06
2022-11-12T23:34:01.308Z,102369.16
2022-11-12T23:36:30.108Z,102373.44
2022-11-12T23:38:58.799Z,102368.72
2022-11-12T23:41:28.527Z,102371.94
2022-11-12T23:43:59.145Z,102373.63
2022-11-12T23:46:27.546Z,102363.59
2022-11-12T23:48:56.026Z,102363.00
2022-11-12T23:51:24.626Z,102363.00
2022-11-12T23:53:52.967Z,102360.41
2022-11-12T23:56:21.320Z,102366.19
2022-11-12T23:58:50.028Z,102360.19
